sensor_id;sensor_type;location;lat;lon;timestamp;pressure;altitude;pressure_sealevel;temperature;humidity
71105;BME280;58760;48.716;8.962;2023-04-28T00:01:14;96284.56;;;10.97;70.40
71105;BME280;58760;48.716;8.962;2023-04-28T00:03:39;96289.41;;;10.94;72.29
71105;BME280;58760;48.716;8.962;2023-04-28T00:06:05;96284.63;;;10.89;71.96
71105;BME280;58760;48.716;8.962;2023-04-28T00:08:30;96288.13;;;10.90;71.97
71105;BME280;58760;48.716;8.962;2023-04-28T00:10:56;96280.19;;;11.19;70.19
71105;BME280;58760;48.716;8.962;2023-04-28T00:13:21;96288.06;;;10.98;70.95
71105;BME280;58760;48.716;8.962;2023-04-28T00:15:48;96287.03;;;10.99;71.17
71105;BME280;58760;48.716;8.962;2023-04-28T00:18:14;96286.34;;;11.05;70.26
71105;BME280;58760;48.716;8.962;2023-04-28T00:20:39;96286.94;;;10.92;71.16
71105;BME280;58760;48.716;8.962;2023-04-28T00:23:05;96275.41;;;10.85;71.40
71105;BME280;58760;48.716;8.962;2023-04-28T00:25:30;96276.69;;;10.89;71.66
71105;BME280;58760;48.716;8.962;2023-04-28T00:27:55;96273.84;;;10.91;70.82
71105;BME280;58760;48.716;8.962;2023-04-28T00:30:21;96270.72;;;10.87;71.16
71105;BME280;58760;48.716;8.962;2023-04-28T00:32:46;96268.06;;;10.87;70.99
71105;BME280;58760;48.716;8.962;2023-04-28T00:35:12;96263.31;;;10.83;71.80
71105;BME280;58760;48.716;8.962;2023-04-28T00:37:38;96264.59;;;10.87;71.41
71105;BME280;58760;48.716;8.962;2023-04-28T00:40:03;96261.13;;;10.86;71.86
71105;BME280;58760;48.716;8.962;2023-04-28T00:42:29;96266.78;;;10.83;72.40
71105;BME280;58760;48.716;8.962;2023-04-28T00:44:56;96258.00;;;10.83;71.93
71105;BME280;58760;48.716;8.962;2023-04-28T00:47:21;96261.00;;;10.80;72.34
71105;BME280;58760;48.716;8.962;2023-04-28T00:49:47;96255.34;;;10.83;72.01
71105;BME280;58760;48.716;8.962;2023-04-28T00:52:14;96255.69;;;10.80;72.95
71105;BME280;58760;48.716;8.962;2023-04-28T00:54:39;96247.94;;;10.78;73.18
71105;BME280;58760;48.716;8.962;2023-04-28T00:57:07;96242.16;;;10.75;73.30
71105;BME280;58760;48.716;8.962;2023-04-28T00:59:33;96253.53;;;10.98;72.64
71105;BME280;58760;48.716;8.962;2023-04-28T01:01:59;96250.53;;;11.01;72.27
71105;BME280;58760;48.716;8.962;2023-04-28T01:04:25;96254.38;;;10.98;72.80
71105;BME280;58760;48.716;8.962;2023-04-28T01:06:54;96253.44;;;10.91;73.63
71105;BME280;58760;48.716;8.962;2023-04-28T01:09:20;96253.81;;;10.88;73.83
71105;BME280;58760;48.716;8.962;2023-04-28T01:11:45;96248.88;;;10.85;73.87
71105;BME280;58760;48.716;8.962;2023-04-28T01:14:11;96237.13;;;10.80;74.42
71105;BME280;58760;48.716;8.962;2023-04-28T01:16:37;96239.16;;;10.78;74.47
71105;BME280;58760;48.716;8.962;2023-04-28T01:19:06;96232.38;;;10.75;75.15
71105;BME280;58760;48.716;8.962;2023-04-28T01:21:33;96230.72;;;10.74;75.31
71105;BME280;58760;48.716;8.962;2023-04-28T01:23:58;96233.75;;;10.71;75.92
71105;BME280;58760;48.716;8.962;2023-04-28T01:26:24;96236.94;;;10.81;75.72
71105;BME280;58760;48.716;8.962;2023-04-28T01:28:50;96221.41;;;10.93;75.20
71105;BME280;58760;48.716;8.962;2023-04-28T01:31:15;96222.69;;;10.97;74.70
71105;BME280;58760;48.716;8.962;2023-04-28T01:33:41;96212.59;;;10.78;75.17
71105;BME280;58760;48.716;8.962;2023-04-28T01:36:06;96216.44;;;10.75;75.93
71105;BME280;58760;48.716;8.962;2023-04-28T01:38:32;96216.00;;;10.72;76.24
71105;BME280;58760;48.716;8.962;2023-04-28T01:40:58;96217.44;;;10.74;76.66
71105;BME280;58760;48.716;8.962;2023-04-28T01:43:23;96211.50;;;10.72;76.65
71105;BME280;58760;48.716;8.962;2023-04-28T01:45:49;96209.59;;;10.81;75.75
71105;BME280;58760;48.716;8.962;2023-04-28T01:48:15;96214.19;;;11.01;75.37
71105;BME280;58760;48.716;8.962;2023-04-28T01:50:41;96203.91;;;11.13;74.41
71105;BME280;58760;48.716;8.962;2023-04-28T01:53:06;96211.63;;;11.08;74.12
71105;BME280;58760;48.716;8.962;2023-04-28T01:55:31;96208.75;;;11.10;74.51
71105;BME280;58760;48.716;8.962;2023-04-28T01:57:57;96209.22;;;10.84;75.39
71105;BME280;58760;48.716;8.962;2023-04-28T02:00:22;96203.66;;;10.79;76.36
71105;BME280;58760;48.716;8.962;2023-04-28T02:02:48;96199.06;;;10.73;77.41
71105;BME280;58760;48.716;8.962;2023-04-28T02:05:14;96190.38;;;10.79;76.62
71105;BME280;58760;48.716;8.962;2023-04-28T02:07:39;96193.38;;;10.61;77.95
71105;BME280;58760;48.716;8.962;2023-04-28T02:10:06;96185.31;;;10.55;77.98
71105;BME280;58760;48.716;8.962;2023-04-28T02:12:31;96180.38;;;10.52;78.18
71105;BME280;58760;48.716;8.962;2023-04-28T02:14:57;96192.38;;;10.77;77.35
71105;BME280;58760;48.716;8.962;2023-04-28T02:17:22;96192.84;;;10.80;76.62
71105;BME280;58760;48.716;8.962;2023-04-28T02:19:53;96188.00;;;10.84;75.75
71105;BME280;58760;48.716;8.962;2023-04-28T02:22:19;96187.72;;;10.93;75.33
71105;BME280;58760;48.716;8.962;2023-04-28T02:24:44;96183.13;;;11.17;73.96
71105;BME280;58760;48.716;8.962;2023-04-28T02:27:09;96188.34;;;11.10;74.05
71105;BME280;58760;48.716;8.962;2023-04-28T02:29:35;96182.13;;;11.03;74.06
71105;BME280;58760;48.716;8.962;2023-04-28T02:32:00;96184.44;;;10.91;74.55
71105;BME280;58760;48.716;8.962;2023-04-28T02:34:26;96188.63;;;11.15;73.67
71105;BME280;58760;48.716;8.962;2023-04-28T02:36:51;96174.81;;;11.05;73.58
71105;BME280;58760;48.716;8.962;2023-04-28T02:39:16;96179.00;;;11.14;72.88
71105;BME280;58760;48.716;8.962;2023-04-28T02:41:42;96182.13;;;11.03;73.57
71105;BME280;58760;48.716;8.962;2023-04-28T02:44:07;96189.53;;;10.93;74.22
71105;BME280;58760;48.716;8.962;2023-04-28T02:46:33;96188.81;;;10.84;74.41
71105;BME280;58760;48.716;8.962;2023-04-28T02:48:58;96189.09;;;10.75;75.41
71105;BME280;58760;48.716;8.962;2023-04-28T02:51:23;96183.31;;;10.71;76.04
71105;BME280;58760;48.716;8.962;2023-04-28T02:53:49;96196.75;;;10.70;76.20
71105;BME280;58760;48.716;8.962;2023-04-28T02:56:15;96206.19;;;10.72;76.58
71105;BME280;58760;48.716;8.962;2023-04-28T02:58:40;96200.69;;;10.74;75.79
71105;BME280;58760;48.716;8.962;2023-04-28T03:01:06;96203.19;;;10.75;76.12
71105;BME280;58760;48.716;8.962;2023-04-28T03:03:31;96198.03;;;10.74;75.91
71105;BME280;58760;48.716;8.962;2023-04-28T03:05:56;96196.06;;;10.76;76.57
71105;BME280;58760;48.716;8.962;2023-04-28T03:08:22;96187.06;;;10.77;76.27
71105;BME280;58760;48.716;8.962;2023-04-28T03:10:47;96177.28;;;10.77;76.38
71105;BME280;58760;48.716;8.962;2023-04-28T03:13:13;96178.09;;;10.78;76.57
71105;BME280;58760;48.716;8.962;2023-04-28T03:15:38;96176.44;;;10.77;76.74
71105;BME280;58760;48.716;8.962;2023-04-28T03:18:03;96180.13;;;10.76;77.39
71105;BME280;58760;48.716;8.962;2023-04-28T03:20:29;96180.31;;;10.89;76.87
71105;BME280;58760;48.716;8.962;2023-04-28T03:22:54;96174.63;;;10.92;76.90
71105;BME280;58760;48.716;8.962;2023-04-28T03:25:19;96179.84;;;10.85;77.35
71105;BME280;58760;48.716;8.962;2023-04-28T03:27:45;96174.63;;;10.92;77.13
71105;BME280;58760;48.716;8.962;2023-04-28T03:30:10;96164.38;;;10.89;77.24
71105;BME280;58760;48.716;8.962;2023-04-28T03:32:36;96166.38;;;10.87;77.98
71105;BME280;58760;48.716;8.962;2023-04-28T03:35:01;96160.63;;;10.83;78.73
71105;BME280;58760;48.716;8.962;2023-04-28T03:37:27;96174.91;;;10.82;79.26
71105;BME280;58760;48.716;8.962;2023-04-28T03:39:52;96169.88;;;10.87;78.42
71105;BME280;58760;48.716;8.962;2023-04-28T03:42:17;96169.31;;;10.92;78.13
71105;BME280;58760;48.716;8.962;2023-04-28T03:44:43;96161.38;;;10.92;77.99
71105;BME280;58760;48.716;8.962;2023-04-28T03:47:08;96153.84;;;10.95;78.17
71105;BME280;58760;48.716;8.962;2023-04-28T03:49:34;96158.59;;;11.00;77.08
71105;BME280;58760;48.716;8.962;2023-04-28T03:52:00;96155.13;;;10.99;77.01
71105;BME280;58760;48.716;8.962;2023-04-28T03:54:25;96150.19;;;10.96;77.89
71105;BME280;58760;48.716;8.962;2023-04-28T03:56:51;96151.47;;;11.15;76.65
71105;BME280;58760;48.716;8.962;2023-04-28T03:59:16;96148.16;;;11.13;76.33
71105;BME280;58760;48.716;8.962;2023-04-28T04:01:42;96147.31;;;11.27;76.09
71105;BME280;58760;48.716;8.962;2023-04-28T04:04:07;96146.06;;;11.44;75.38
71105;BME280;58760;48.716;8.962;2023-04-28T04:06:32;96144.19;;;11.60;75.16
71105;BME280;58760;48.716;8.962;2023-04-28T04:08:58;96143.53;;;11.57;75.05
71105;BME280;58760;48.716;8.962;2023-04-28T04:11:24;96137.03;;;11.60;74.91
71105;BME280;58760;48.716;8.962;2023-04-28T04:13:49;96131.97;;;11.44;75.68
71105;BME280;58760;48.716;8.962;2023-04-28T04:16:15;96140.47;;;11.54;75.82
71105;BME280;58760;48.716;8.962;2023-04-28T04:18:41;96138.66;;;11.61;76.19
71105;BME280;58760;48.716;8.962;2023-04-28T04:21:06;96130.00;;;11.52;77.06
71105;BME280;58760;48.716;8.962;2023-04-28T04:23:32;96130.03;;;11.74;76.23
71105;BME280;58760;48.716;8.962;2023-04-28T04:25:57;96132.19;;;11.64;77.09
71105;BME280;58760;48.716;8.962;2023-04-28T04:28:23;96134.47;;;11.67;77.00
71105;BME280;58760;48.716;8.962;2023-04-28T04:30:48;96133.19;;;11.84;77.04
71105;BME280;58760;48.716;8.962;2023-04-28T04:33:14;96128.59;;;11.71;77.36
71105;BME280;58760;48.716;8.962;2023-04-28T04:35:39;96125.09;;;11.71;77.79
71105;BME280;58760;48.716;8.962;2023-04-28T04:38:04;96132.63;;;11.67;78.28
71105;BME280;58760;48.716;8.962;2023-04-28T04:40:31;96126.88;;;11.64;78.67
71105;BME280;58760;48.716;8.962;2023-04-28T04:42:57;96126.41;;;11.60;79.13
71105;BME280;58760;48.716;8.962;2023-04-28T04:45:22;96124.06;;;11.50;80.12
71105;BME280;58760;48.716;8.962;2023-04-28T04:47:48;96116.72;;;11.52;80.03
71105;BME280;58760;48.716;8.962;2023-04-28T04:50:13;96116.34;;;11.55;80.73
71105;BME280;58760;48.716;8.962;2023-04-28T04:52:39;96114.50;;;11.56;80.95
71105;BME280;58760;48.716;8.962;2023-04-28T04:55:04;96116.22;;;11.64;81.18
71105;BME280;58760;48.716;8.962;2023-04-28T04:57:30;96114.34;;;11.79;80.71
71105;BME280;58760;48.716;8.962;2023-04-28T04:59:56;96131.25;;;11.71;81.73
71105;BME280;58760;48.716;8.962;2023-04-28T05:02:21;96131.41;;;11.70;83.02
71105;BME280;58760;48.716;8.962;2023-04-28T05:04:47;96132.97;;;11.64;83.60
71105;BME280;58760;48.716;8.962;2023-04-28T05:07:12;96126.47;;;11.67;83.90
71105;BME280;58760;48.716;8.962;2023-04-28T05:09:37;96126.78;;;11.57;84.78
71105;BME280;58760;48.716;8.962;2023-04-28T05:12:03;96124.63;;;11.46;85.73
71105;BME280;58760;48.716;8.962;2023-04-28T05:14:28;96127.09;;;11.47;86.08
71105;BME280;58760;48.716;8.962;2023-04-28T05:16:54;96125.44;;;11.46;86.11
71105;BME280;58760;48.716;8.962;2023-04-28T05:19:19;96130.94;;;11.45;86.44
71105;BME280;58760;48.716;8.962;2023-04-28T05:21:45;96130.63;;;11.54;86.04
71105;BME280;58760;48.716;8.962;2023-04-28T05:24:12;96125.44;;;11.46;86.29
71105;BME280;58760;48.716;8.962;2023-04-28T05:26:37;96128.72;;;11.48;87.01
71105;BME280;58760;48.716;8.962;2023-04-28T05:29:03;96132.34;;;11.41;87.24
71105;BME280;58760;48.716;8.962;2023-04-28T05:31:28;96130.69;;;11.40;87.27
71105;BME280;58760;48.716;8.962;2023-04-28T05:33:53;96133.78;;;11.43;87.69
71105;BME280;58760;48.716;8.962;2023-04-28T05:36:19;96124.56;;;11.39;88.03
71105;BME280;58760;48.716;8.962;2023-04-28T05:38:44;96128.50;;;11.29;88.74
71105;BME280;58760;48.716;8.962;2023-04-28T05:41:09;96127.66;;;11.64;88.01
71105;BME280;58760;48.716;8.962;2023-04-28T05:43:35;96127.25;;;11.61;87.27
71105;BME280;58760;48.716;8.962;2023-04-28T05:46:01;96129.69;;;11.62;87.33
71105;BME280;58760;48.716;8.962;2023-04-28T05:48:26;96127.59;;;11.57;88.84
71105;BME280;58760;48.716;8.962;2023-04-28T05:50:52;96130.56;;;11.48;88.81
71105;BME280;58760;48.716;8.962;2023-04-28T05:53:17;96130.00;;;11.52;88.65
71105;BME280;58760;48.716;8.962;2023-04-28T05:55:42;96130.19;;;11.51;88.26
71105;BME280;58760;48.716;8.962;2023-04-28T05:58:08;96120.50;;;11.65;88.13
71105;BME280;58760;48.716;8.962;2023-04-28T06:00:33;96122.47;;;11.56;88.91
71105;BME280;58760;48.716;8.962;2023-04-28T06:02:59;96125.22;;;11.63;88.67
71105;BME280;58760;48.716;8.962;2023-04-28T06:05:24;96122.13;;;11.44;89.95
71105;BME280;58760;48.716;8.962;2023-04-28T06:07:50;96115.44;;;11.48;90.28
71105;BME280;58760;48.716;8.962;2023-04-28T06:10:15;96106.34;;;11.57;90.61
71105;BME280;58760;48.716;8.962;2023-04-28T06:12:41;96110.53;;;11.67;89.93
71105;BME280;58760;48.716;8.962;2023-04-28T06:15:06;96115.34;;;11.57;90.42
71105;BME280;58760;48.716;8.962;2023-04-28T06:17:32;96116.84;;;11.66;90.51
71105;BME280;58760;48.716;8.962;2023-04-28T06:19:58;96115.28;;;11.71;90.51
71105;BME280;58760;48.716;8.962;2023-04-28T06:22:24;96122.34;;;11.79;89.41
71105;BME280;58760;48.716;8.962;2023-04-28T06:24:50;96123.34;;;11.78;90.13
71105;BME280;58760;48.716;8.962;2023-04-28T06:27:16;96112.59;;;11.86;89.67
71105;BME280;58760;48.716;8.962;2023-04-28T06:29:41;96115.41;;;11.84;90.00
71105;BME280;58760;48.716;8.962;2023-04-28T06:32:07;96106.13;;;11.95;89.43
71105;BME280;58760;48.716;8.962;2023-04-28T06:34:33;96107.38;;;11.99;89.80
71105;BME280;58760;48.716;8.962;2023-04-28T06:36:58;96112.69;;;11.99;89.41
71105;BME280;58760;48.716;8.962;2023-04-28T06:39:24;96114.81;;;12.10;89.40
71105;BME280;58760;48.716;8.962;2023-04-28T06:41:49;96110.88;;;11.99;89.60
71105;BME280;58760;48.716;8.962;2023-04-28T06:44:15;96109.66;;;12.02;90.11
71105;BME280;58760;48.716;8.962;2023-04-28T06:46:40;96113.16;;;12.02;90.28
71105;BME280;58760;48.716;8.962;2023-04-28T06:49:06;96100.13;;;12.14;90.09
71105;BME280;58760;48.716;8.962;2023-04-28T06:51:32;96103.63;;;12.15;90.03
71105;BME280;58760;48.716;8.962;2023-04-28T06:53:58;96100.81;;;12.23;90.00
71105;BME280;58760;48.716;8.962;2023-04-28T06:56:23;96107.72;;;12.17;90.13
71105;BME280;58760;48.716;8.962;2023-04-28T06:58:49;96103.91;;;12.26;90.36
71105;BME280;58760;48.716;8.962;2023-04-28T07:01:15;96100.06;;;12.29;89.92
71105;BME280;58760;48.716;8.962;2023-04-28T07:03:41;96100.84;;;12.29;90.24
71105;BME280;58760;48.716;8.962;2023-04-28T07:06:06;96097.09;;;12.17;90.79
71105;BME280;58760;48.716;8.962;2023-04-28T07:08:33;96094.38;;;12.38;90.58
71105;BME280;58760;48.716;8.962;2023-04-28T07:10:58;96094.53;;;12.30;90.07
71105;BME280;58760;48.716;8.962;2023-04-28T07:13:24;96096.41;;;12.36;89.99
71105;BME280;58760;48.716;8.962;2023-04-28T07:15:49;96096.06;;;12.46;90.24
71105;BME280;58760;48.716;8.962;2023-04-28T07:18:15;96087.50;;;12.50;89.58
71105;BME280;58760;48.716;8.962;2023-04-28T07:20:40;96103.47;;;12.50;90.07
71105;BME280;58760;48.716;8.962;2023-04-28T07:23:05;96100.94;;;12.42;90.15
71105;BME280;58760;48.716;8.962;2023-04-28T07:25:31;96097.88;;;12.45;90.77
71105;BME280;58760;48.716;8.962;2023-04-28T07:27:56;96098.53;;;12.47;90.54
71105;BME280;58760;48.716;8.962;2023-04-28T07:30:21;96095.63;;;12.42;91.17
71105;BME280;58760;48.716;8.962;2023-04-28T07:32:47;96095.88;;;12.47;91.32
71105;BME280;58760;48.716;8.962;2023-04-28T07:35:12;96094.25;;;12.53;91.56
71105;BME280;58760;48.716;8.962;2023-04-28T07:37:38;96092.03;;;12.56;91.82
71105;BME280;58760;48.716;8.962;2023-04-28T07:40:05;96087.50;;;12.50;92.08
71105;BME280;58760;48.716;8.962;2023-04-28T07:42:30;96080.94;;;12.53;92.96
71105;BME280;58760;48.716;8.962;2023-04-28T07:44:56;96084.22;;;12.55;93.58
71105;BME280;58760;48.716;8.962;2023-04-28T07:47:23;96082.78;;;12.52;94.20
71105;BME280;58760;48.716;8.962;2023-04-28T07:49:48;96079.59;;;12.64;94.55
71105;BME280;58760;48.716;8.962;2023-04-28T07:52:14;96087.53;;;12.57;95.33
71105;BME280;58760;48.716;8.962;2023-04-28T07:54:39;96094.69;;;12.56;95.84
71105;BME280;58760;48.716;8.962;2023-04-28T07:57:04;96104.09;;;12.52;96.36
71105;BME280;58760;48.716;8.962;2023-04-28T07:59:34;96106.09;;;12.44;97.19
71105;BME280;58760;48.716;8.962;2023-04-28T08:01:59;96111.53;;;12.36;99.07
71105;BME280;58760;48.716;8.962;2023-04-28T08:04:25;96109.97;;;12.41;99.06
71105;BME280;58760;48.716;8.962;2023-04-28T08:06:50;96106.47;;;12.41;99.81
71105;BME280;58760;48.716;8.962;2023-04-28T08:09:17;96106.75;;;12.52;99.39
71105;BME280;58760;48.716;8.962;2023-04-28T08:11:42;96106.78;;;12.59;99.64
71105;BME280;58760;48.716;8.962;2023-04-28T08:14:07;96110.84;;;12.55;99.42
71105;BME280;58760;48.716;8.962;2023-04-28T08:16:33;96114.16;;;12.57;99.51
71105;BME280;58760;48.716;8.962;2023-04-28T08:19:01;96113.66;;;12.47;100.00
71105;BME280;58760;48.716;8.962;2023-04-28T08:21:26;96117.38;;;12.52;100.00
71105;BME280;58760;48.716;8.962;2023-04-28T08:23:52;96112.44;;;12.49;100.00
71105;BME280;58760;48.716;8.962;2023-04-28T08:26:17;96123.19;;;12.63;100.00
71105;BME280;58760;48.716;8.962;2023-04-28T08:28:43;96120.41;;;12.77;100.00
71105;BME280;58760;48.716;8.962;2023-04-28T08:31:08;96122.91;;;12.85;100.00
71105;BME280;58760;48.716;8.962;2023-04-28T08:33:34;96123.34;;;12.89;100.00
71105;BME280;58760;48.716;8.962;2023-04-28T08:35:59;96118.84;;;12.89;100.00
71105;BME280;58760;48.716;8.962;2023-04-28T08:38:25;96121.66;;;12.81;99.36
71105;BME280;58760;48.716;8.962;2023-04-28T08:40:51;96122.88;;;12.79;100.00
71105;BME280;58760;48.716;8.962;2023-04-28T08:43:16;96117.63;;;12.92;100.00
71105;BME280;58760;48.716;8.962;2023-04-28T08:45:43;96127.47;;;12.98;99.97
71105;BME280;58760;48.716;8.962;2023-04-28T08:48:17;96118.75;;;13.10;100.00
71105;BME280;58760;48.716;8.962;2023-04-28T08:50:51;96131.66;;;13.14;100.00
71105;BME280;58760;48.716;8.962;2023-04-28T08:53:25;96133.66;;;13.05;100.00
71105;BME280;58760;48.716;8.962;2023-04-28T08:55:55;96136.81;;;13.15;100.00
71105;BME280;58760;48.716;8.962;2023-04-28T08:58:25;96150.16;;;13.22;100.00
71105;BME280;58760;48.716;8.962;2023-04-28T09:00:51;96142.03;;;13.30;100.00
71105;BME280;58760;48.716;8.962;2023-04-28T09:03:17;96151.84;;;13.29;100.00
71105;BME280;58760;48.716;8.962;2023-04-28T09:05:42;96148.59;;;13.40;100.00
71105;BME280;58760;48.716;8.962;2023-04-28T09:08:08;96166.88;;;13.50;100.00
71105;BME280;58760;48.716;8.962;2023-04-28T09:10:36;96153.31;;;13.38;100.00
71105;BME280;58760;48.716;8.962;2023-04-28T09:13:02;96156.44;;;13.48;100.00
71105;BME280;58760;48.716;8.962;2023-04-28T09:15:34;96165.50;;;13.60;100.00
71105;BME280;58760;48.716;8.962;2023-04-28T09:18:06;96159.31;;;13.60;100.00
71105;BME280;58760;48.716;8.962;2023-04-28T09:20:33;96165.13;;;13.77;100.00
71105;BME280;58760;48.716;8.962;2023-04-28T09:23:31;96161.09;;;14.07;100.00
71105;BME280;58760;48.716;8.962;2023-04-28T09:26:03;96165.78;;;14.11;100.00
71105;BME280;58760;48.716;8.962;2023-04-28T09:28:29;96163.75;;;14.20;100.00
71105;BME280;58760;48.716;8.962;2023-04-28T09:30:55;96160.28;;;14.33;100.00
71105;BME280;58760;48.716;8.962;2023-04-28T09:33:21;96154.75;;;14.41;100.00
71105;BME280;58760;48.716;8.962;2023-04-28T09:35:47;96162.56;;;14.69;99.94
71105;BME280;58760;48.716;8.962;2023-04-28T09:38:16;96159.44;;;14.85;98.40
71105;BME280;58760;48.716;8.962;2023-04-28T09:40:59;96161.69;;;14.88;98.33
71105;BME280;58760;48.716;8.962;2023-04-28T09:43:29;96156.50;;;15.06;98.25
71105;BME280;58760;48.716;8.962;2023-04-28T09:45:57;96151.94;;;15.26;97.14
71105;BME280;58760;48.716;8.962;2023-04-28T09:48:30;96152.91;;;15.38;96.17
71105;BME280;58760;48.716;8.962;2023-04-28T09:50:57;96157.19;;;15.52;97.81
71105;BME280;58760;48.716;8.962;2023-04-28T09:53:24;96155.94;;;15.55;95.52
71105;BME280;58760;48.716;8.962;2023-04-28T09:55:52;96156.50;;;15.70;98.24
71105;BME280;58760;48.716;8.962;2023-04-28T09:58:21;96149.28;;;15.70;98.63
71105;BME280;58760;48.716;8.962;2023-04-28T10:00:51;96147.69;;;15.63;96.70
71105;BME280;58760;48.716;8.962;2023-04-28T10:03:17;96159.63;;;15.67;98.00
71105;BME280;58760;48.716;8.962;2023-04-28T10:05:45;96163.13;;;15.61;97.94
71105;BME280;58760;48.716;8.962;2023-04-28T10:08:11;96161.69;;;15.58;97.44
71105;BME280;58760;48.716;8.962;2023-04-28T10:10:37;96158.81;;;15.60;98.12
71105;BME280;58760;48.716;8.962;2023-04-28T10:13:03;96157.44;;;15.51;95.87
71105;BME280;58760;48.716;8.962;2023-04-28T10:15:29;96161.34;;;15.35;100.00
71105;BME280;58760;48.716;8.962;2023-04-28T10:17:56;96160.91;;;15.38;100.00
71105;BME280;58760;48.716;8.962;2023-04-28T10:20:22;96164.63;;;15.44;99.52
71105;BME280;58760;48.716;8.962;2023-04-28T10:25:27;96155.41;;;15.78;91.78
71105;BME280;58760;48.716;8.962;2023-04-28T10:27:55;96164.00;;;15.93;91.16
71105;BME280;58760;48.716;8.962;2023-04-28T10:30:23;96161.50;;;15.98;89.82
71105;BME280;58760;48.716;8.962;2023-04-28T10:35:40;96167.09;;;15.90;89.68
71105;BME280;58760;48.716;8.962;2023-04-28T10:40:43;96170.09;;;16.00;91.23
71105;BME280;58760;48.716;8.962;2023-04-28T10:43:11;96168.25;;;16.00;87.92
71105;BME280;58760;48.716;8.962;2023-04-28T10:56:07;96155.88;;;16.87;82.23
71105;BME280;58760;48.716;8.962;2023-04-28T10:58:32;96162.84;;;16.88;82.95
71105;BME280;58760;48.716;8.962;2023-04-28T11:06:18;96165.44;;;16.76;82.54
71105;BME280;58760;48.716;8.962;2023-04-28T11:08:45;96164.81;;;16.49;81.42
71105;BME280;58760;48.716;8.962;2023-04-28T11:11:12;96163.66;;;16.39;81.13
71105;BME280;58760;48.716;8.962;2023-04-28T11:13:38;96156.97;;;16.54;80.48
71105;BME280;58760;48.716;8.962;2023-04-28T11:16:05;96160.00;;;16.64;79.19
71105;BME280;58760;48.716;8.962;2023-04-28T11:18:58;96159.38;;;16.62;78.45
71105;BME280;58760;48.716;8.962;2023-04-28T11:21:25;96157.53;;;16.63;79.29
71105;BME280;58760;48.716;8.962;2023-04-28T11:23:52;96157.59;;;16.56;77.55
71105;BME280;58760;48.716;8.962;2023-04-28T11:26:19;96158.44;;;16.75;77.49
71105;BME280;58760;48.716;8.962;2023-04-28T11:28:54;96158.94;;;16.65;76.84
71105;BME280;58760;48.716;8.962;2023-04-28T11:31:21;96151.84;;;16.78;78.08
71105;BME280;58760;48.716;8.962;2023-04-28T11:34:09;96152.69;;;16.71;76.65
71105;BME280;58760;48.716;8.962;2023-04-28T11:36:41;96152.69;;;16.71;76.91
71105;BME280;58760;48.716;8.962;2023-04-28T11:39:11;96147.59;;;16.88;75.91
71105;BME280;58760;48.716;8.962;2023-04-28T11:41:38;96148.66;;;17.05;75.23
71105;BME280;58760;48.716;8.962;2023-04-28T11:44:17;96149.72;;;17.22;75.79
71105;BME280;58760;48.716;8.962;2023-04-28T11:46:51;96148.28;;;17.20;74.96
71105;BME280;58760;48.716;8.962;2023-04-28T11:49:21;96146.72;;;17.31;75.37
71105;BME280;58760;48.716;8.962;2023-04-28T11:51:49;96146.44;;;17.39;73.31
71105;BME280;58760;48.716;8.962;2023-04-28T11:54:22;96143.66;;;17.27;72.67
71105;BME280;58760;48.716;8.962;2023-04-28T11:56:48;96140.09;;;17.33;72.53
71105;BME280;58760;48.716;8.962;2023-04-28T11:59:13;96145.69;;;17.32;73.33
71105;BME280;58760;48.716;8.962;2023-04-28T12:01:50;96140.91;;;17.52;72.50
71105;BME280;58760;48.716;8.962;2023-04-28T12:04:39;96142.63;;;17.64;71.62
71105;BME280;58760;48.716;8.962;2023-04-28T12:07:15;96132.84;;;18.00;70.46
71105;BME280;58760;48.716;8.962;2023-04-28T12:09:45;96137.00;;;18.14;71.13
71105;BME280;58760;48.716;8.962;2023-04-28T12:12:16;96136.25;;;18.07;70.47
71105;BME280;58760;48.716;8.962;2023-04-28T12:14:59;96134.69;;;18.29;68.39
71105;BME280;58760;48.716;8.962;2023-04-28T12:17:37;96128.91;;;18.55;68.23
71105;BME280;58760;48.716;8.962;2023-04-28T12:20:32;96132.50;;;18.49;67.22
71105;BME280;58760;48.716;8.962;2023-04-28T12:22:57;96131.88;;;18.36;68.95
71105;BME280;58760;48.716;8.962;2023-04-28T12:25:22;96137.16;;;18.42;70.09
71105;BME280;58760;48.716;8.962;2023-04-28T12:28:04;96142.59;;;18.24;68.23
71105;BME280;58760;48.716;8.962;2023-04-28T12:30:33;96143.00;;;17.98;68.41
71105;BME280;58760;48.716;8.962;2023-04-28T12:32:58;96137.09;;;17.77;68.00
71105;BME280;58760;48.716;8.962;2023-04-28T12:35:25;96135.78;;;17.68;68.70
71105;BME280;58760;48.716;8.962;2023-04-28T12:37:52;96127.72;;;17.68;69.64
71105;BME280;58760;48.716;8.962;2023-04-28T12:40:21;96138.91;;;17.65;68.89
71105;BME280;58760;48.716;8.962;2023-04-28T12:45:59;96129.56;;;17.50;69.77
71105;BME280;58760;48.716;8.962;2023-04-28T12:48:25;96134.63;;;17.40;70.10
71105;BME280;58760;48.716;8.962;2023-04-28T12:50:51;96143.84;;;17.32;71.08
71105;BME280;58760;48.716;8.962;2023-04-28T12:53:17;96139.38;;;17.26;70.45
71105;BME280;58760;48.716;8.962;2023-04-28T12:55:42;96134.88;;;17.20;71.11
71105;BME280;58760;48.716;8.962;2023-04-28T12:58:08;96138.38;;;17.20;71.28
71105;BME280;58760;48.716;8.962;2023-04-28T13:00:33;96131.78;;;17.23;71.04
71105;BME280;58760;48.716;8.962;2023-04-28T13:02:58;96130.34;;;17.39;71.19
71105;BME280;58760;48.716;8.962;2023-04-28T13:05:24;96128.03;;;17.42;70.40
71105;BME280;58760;48.716;8.962;2023-04-28T13:07:50;96134.22;;;17.61;69.86
71105;BME280;58760;48.716;8.962;2023-04-28T13:10:16;96109.25;;;17.90;68.36
71105;BME280;58760;48.716;8.962;2023-04-28T13:12:43;96114.13;;;18.23;68.16
71105;BME280;58760;48.716;8.962;2023-04-28T13:15:08;96104.47;;;18.57;67.31
71105;BME280;58760;48.716;8.962;2023-04-28T13:17:34;96098.75;;;18.53;67.68
71105;BME280;58760;48.716;8.962;2023-04-28T13:20:00;96107.03;;;18.63;66.74
71105;BME280;58760;48.716;8.962;2023-04-28T13:22:27;96115.19;;;18.45;66.58
71105;BME280;58760;48.716;8.962;2023-04-28T13:24:53;96104.19;;;18.23;66.92